sensor_id;sensor_type;location;lat;lon;timestamp;pressure;altitude;pressure_sealevel;temperature;humidity
16355;BME280;8287;51.644;8.494;2022-09-09T00:00:55;99680.75;;;20.36;66.51
16355;BME280;8287;51.644;8.494;2022-09-09T00:03:26;99679.22;;;20.35;66.99
16355;BME280;8287;51.644;8.494;2022-09-09T00:05:59;99676.91;;;20.33;67.07
16355;BME280;8287;51.644;8.494;2022-09-09T00:08:37;99677.28;;;20.38;66.89
16355;BME280;8287;51.644;8.494;2022-09-09T00:11:12;99675.38;;;20.46;66.75
16355;BME280;8287;51.644;8.494;2022-09-09T00:13:45;99671.16;;;20.42;66.68
16355;BME280;8287;51.644;8.494;2022-09-09T00:16:17;99666.16;;;20.43;66.23
16355;BME280;8287;51.644;8.494;2022-09-09T00:18:51;99662.31;;;20.44;66.78
16355;BME280;8287;51.644;8.494;2022-09-09T00:21:24;99655.38;;;20.43;66.61
16355;BME280;8287;51.644;8.494;2022-09-09T00:23:54;99671.16;;;20.42;66.73
16355;BME280;8287;51.644;8.494;2022-09-09T00:26:30;99661.53;;;20.40;66.90
16355;BME280;8287;51.644;8.494;2022-09-09T00:29:09;99657.66;;;20.52;66.61
16355;BME280;8287;51.644;8.494;2022-09-09T00:31:40;99663.47;;;20.43;66.95
16355;BME280;8287;51.644;8.494;2022-09-09T00:34:12;99657.66;;;20.52;66.66
16355;BME280;8287;51.644;8.494;2022-09-09T00:36:41;99668.44;;;20.55;66.35
16355;BME280;8287;51.644;8.494;2022-09-09T00:39:16;99668.81;;;20.61;66.45
16355;BME280;8287;51.644;8.494;2022-09-09T00:42:02;99667.31;;;20.49;67.02
16355;BME280;8287;51.644;8.494;2022-09-09T00:44:36;99661.16;;;20.52;66.66
16355;BME280;8287;51.644;8.494;2022-09-09T00:47:25;99667.69;;;20.44;67.40
16355;BME280;8287;51.644;8.494;2022-09-09T00:50:00;99671.50;;;20.61;66.44
16355;BME280;8287;51.644;8.494;2022-09-09T00:52:33;99671.50;;;20.64;66.53
16355;BME280;8287;51.644;8.494;2022-09-09T00:55:09;99676.13;;;20.64;66.17
16355;BME280;8287;51.644;8.494;2022-09-09T00:57:39;99678.41;;;20.65;66.09
16355;BME280;8287;51.644;8.494;2022-09-09T01:00:19;99680.00;;;20.66;66.24
16355;BME280;8287;51.644;8.494;2022-09-09T01:02:53;99683.06;;;20.61;66.41
16355;BME280;8287;51.644;8.494;2022-09-09T01:05:27;99683.44;;;20.60;66.38
16355;BME280;8287;51.644;8.494;2022-09-09T01:07:58;99686.13;;;20.56;66.78
16355;BME280;8287;51.644;8.494;2022-09-09T01:10:34;99681.91;;;20.48;67.02
16355;BME280;8287;51.644;8.494;2022-09-09T01:13:11;99684.59;;;20.48;66.70
16355;BME280;8287;51.644;8.494;2022-09-09T01:15:40;99685.38;;;20.49;66.89
16355;BME280;8287;51.644;8.494;2022-09-09T01:18:13;99683.84;;;20.44;66.70
16355;BME280;8287;51.644;8.494;2022-09-09T01:20:48;99674.59;;;20.38;66.95
16355;BME280;8287;51.644;8.494;2022-09-09T01:26:22;99670.78;;;20.33;67.17
16355;BME280;8287;51.644;8.494;2022-09-09T01:28:52;99676.13;;;20.36;66.88
16355;BME280;8287;51.644;8.494;2022-09-09T01:31:21;99671.91;;;20.21;67.56
16355;BME280;8287;51.644;8.494;2022-09-09T01:33:50;99667.69;;;20.17;67.19
16355;BME280;8287;51.644;8.494;2022-09-09T01:36:26;99666.13;;;20.26;67.24
16355;BME280;8287;51.644;8.494;2022-09-09T01:38:55;99664.22;;;20.27;67.20
16355;BME280;8287;51.644;8.494;2022-09-09T01:41:24;99656.16;;;20.30;67.08
16355;BME280;8287;51.644;8.494;2022-09-09T01:43:50;99661.53;;;20.23;67.07
16355;BME280;8287;51.644;8.494;2022-09-09T01:46:21;99655.34;;;20.16;67.17
16355;BME280;8287;51.644;8.494;2022-09-09T01:48:49;99654.63;;;20.19;67.41
16355;BME280;8287;51.644;8.494;2022-09-09T01:51:16;99659.22;;;20.18;67.37
16355;BME280;8287;51.644;8.494;2022-09-09T01:53:43;99656.94;;;20.17;67.17
16355;BME280;8287;51.644;8.494;2022-09-09T01:56:20;99660.34;;;20.10;67.52
16355;BME280;8287;51.644;8.494;2022-09-09T01:59:01;99664.59;;;20.15;67.17
16355;BME280;8287;51.644;8.494;2022-09-09T02:01:37;99656.13;;;20.13;67.59
16355;BME280;8287;51.644;8.494;2022-09-09T02:04:22;99658.06;;;20.16;67.12
16355;BME280;8287;51.644;8.494;2022-09-09T02:06:54;99663.44;;;20.16;67.30
16355;BME280;8287;51.644;8.494;2022-09-09T02:09:24;99654.59;;;20.12;67.28
16355;BME280;8287;51.644;8.494;2022-09-09T02:11:55;99662.28;;;20.10;67.26
16355;BME280;8287;51.644;8.494;2022-09-09T02:14:28;99659.97;;;20.12;67.53
16355;BME280;8287;51.644;8.494;2022-09-09T02:17:00;99653.06;;;20.11;67.43
16355;BME280;8287;51.644;8.494;2022-09-09T02:19:32;99657.28;;;20.15;67.24
16355;BME280;8287;51.644;8.494;2022-09-09T02:22:00;99656.91;;;20.10;67.58
16355;BME280;8287;51.644;8.494;2022-09-09T02:24:30;99650.75;;;20.06;67.78
16355;BME280;8287;51.644;8.494;2022-09-09T02:26:59;99651.91;;;20.05;67.49
16355;BME280;8287;51.644;8.494;2022-09-09T02:29:31;99655.34;;;20.02;68.09
16355;BME280;8287;51.644;8.494;2022-09-09T02:32:03;99663.81;;;20.07;68.00
16355;BME280;8287;51.644;8.494;2022-09-09T02:34:34;99653.44;;;20.06;68.02
16355;BME280;8287;51.644;8.494;2022-09-09T02:37:03;99654.59;;;20.08;67.96
16355;BME280;8287;51.644;8.494;2022-09-09T02:39:30;99656.91;;;20.10;67.87
16355;BME280;8287;51.644;8.494;2022-09-09T02:41:56;99662.66;;;20.08;68.33
16355;BME280;8287;51.644;8.494;2022-09-09T02:44:23;99662.66;;;20.08;68.08
16355;BME280;8287;51.644;8.494;2022-09-09T02:47:07;99675.31;;;19.97;68.90
16355;BME280;8287;51.644;8.494;2022-09-09T02:49:44;99671.47;;;20.02;68.78
16355;BME280;8287;51.644;8.494;2022-09-09T02:52:18;99665.72;;;20.00;68.98
16355;BME280;8287;51.644;8.494;2022-09-09T02:54:50;99679.13;;;20.03;68.95
16355;BME280;8287;51.644;8.494;2022-09-09T02:57:22;99674.50;;;19.93;69.21
16355;BME280;8287;51.644;8.494;2022-09-09T02:59:50;99672.97;;;19.92;69.44
16355;BME280;8287;51.644;8.494;2022-09-09T03:02:19;99671.09;;;20.00;69.02
16355;BME280;8287;51.644;8.494;2022-09-09T03:04:45;99667.25;;;20.01;68.82
16355;BME280;8287;51.644;8.494;2022-09-09T03:07:16;99679.53;;;19.98;68.96
16355;BME280;8287;51.644;8.494;2022-09-09T03:09:43;99676.84;;;20.02;69.09
16355;BME280;8287;51.644;8.494;2022-09-09T03:12:10;99684.53;;;20.03;69.04
16355;BME280;8287;51.644;8.494;2022-09-09T03:14:36;99676.13;;;20.08;68.76
16355;BME280;8287;51.644;8.494;2022-09-09T03:17:03;99686.13;;;20.04;68.81
16355;BME280;8287;51.644;8.494;2022-09-09T03:19:31;99686.81;;;19.91;69.65
16355;BME280;8287;51.644;8.494;2022-09-09T03:21:58;99669.16;;;20.00;69.34
16355;BME280;8287;51.644;8.494;2022-09-09T03:24:25;99666.50;;;20.07;69.44
16355;BME280;8287;51.644;8.494;2022-09-09T03:26:52;99666.50;;;20.11;69.02
16355;BME280;8287;51.644;8.494;2022-09-09T03:29:18;99669.22;;;20.11;69.19
16355;BME280;8287;51.644;8.494;2022-09-09T03:31:45;99670.75;;;20.12;68.98
16355;BME280;8287;51.644;8.494;2022-09-09T03:34:12;99670.75;;;20.12;69.17
16355;BME280;8287;51.644;8.494;2022-09-09T03:36:40;99669.22;;;20.14;68.67
16355;BME280;8287;51.644;8.494;2022-09-09T03:39:07;99669.97;;;20.18;68.58
16355;BME280;8287;51.644;8.494;2022-09-09T03:41:33;99669.97;;;20.11;69.30
16355;BME280;8287;51.644;8.494;2022-09-09T03:44:02;99665.38;;;20.15;69.19
16355;BME280;8287;51.644;8.494;2022-09-09T03:46:29;99667.69;;;20.17;69.37
16355;BME280;8287;51.644;8.494;2022-09-09T03:48:56;99668.44;;;20.10;69.26
16355;BME280;8287;51.644;8.494;2022-09-09T03:51:23;99660.34;;;20.14;69.14
16355;BME280;8287;51.644;8.494;2022-09-09T03:53:51;99655.38;;;20.12;68.97
16355;BME280;8287;51.644;8.494;2022-09-09T03:56:19;99657.69;;;20.21;68.87
16355;BME280;8287;51.644;8.494;2022-09-09T03:58:46;99659.22;;;20.25;68.46
16355;BME280;8287;51.644;8.494;2022-09-09T04:01:14;99661.53;;;20.23;68.49
16355;BME280;8287;51.644;8.494;2022-09-09T04:03:43;99663.03;;;20.10;69.19
16355;BME280;8287;51.644;8.494;2022-09-09T04:06:11;99659.22;;;20.22;68.75
16355;BME280;8287;51.644;8.494;2022-09-09T04:08:38;99666.50;;;20.28;68.66
16355;BME280;8287;51.644;8.494;2022-09-09T04:11:07;99663.06;;;20.21;68.84
16355;BME280;8287;51.644;8.494;2022-09-09T04:13:34;99671.50;;;20.19;68.78
16355;BME280;8287;51.644;8.494;2022-09-09T04:16:03;99665.38;;;20.12;69.46
16355;BME280;8287;51.644;8.494;2022-09-09T04:18:30;99666.13;;;20.16;68.82
16355;BME280;8287;51.644;8.494;2022-09-09T04:20:57;99664.59;;;20.15;68.83
16355;BME280;8287;51.644;8.494;2022-09-09T04:23:25;99670.75;;;20.19;68.45
16355;BME280;8287;51.644;8.494;2022-09-09T04:25:54;99666.13;;;20.19;69.06
16355;BME280;8287;51.644;8.494;2022-09-09T04:28:25;99683.81;;;20.10;68.83
16355;BME280;8287;51.644;8.494;2022-09-09T04:30:52;99680.75;;;20.08;68.67
16355;BME280;8287;51.644;8.494;2022-09-09T04:33:19;99668.44;;;20.10;68.76
16355;BME280;8287;51.644;8.494;2022-09-09T04:35:46;99689.94;;;20.10;68.90
16355;BME280;8287;51.644;8.494;2022-09-09T04:38:14;99684.56;;;20.07;68.56
16355;BME280;8287;51.644;8.494;2022-09-09T04:40:42;99667.28;;;20.08;68.56
16355;BME280;8287;51.644;8.494;2022-09-09T04:43:09;99675.34;;;20.11;68.80
16355;BME280;8287;51.644;8.494;2022-09-09T04:45:37;99677.59;;;19.92;69.15
16355;BME280;8287;51.644;8.494;2022-09-09T04:48:06;99682.97;;;19.92;69.49
16355;BME280;8287;51.644;8.494;2022-09-09T04:50:32;99678.75;;;19.98;68.91
16355;BME280;8287;51.644;8.494;2022-09-09T04:53:00;99683.75;;;19.99;68.77
16355;BME280;8287;51.644;8.494;2022-09-09T04:55:27;99687.59;;;19.95;69.21
16355;BME280;8287;51.644;8.494;2022-09-09T04:57:53;99683.38;;;19.94;69.41
16355;BME280;8287;51.644;8.494;2022-09-09T05:00:20;99685.69;;;19.95;69.09
16355;BME280;8287;51.644;8.494;2022-09-09T05:02:48;99682.97;;;19.88;69.26
16355;BME280;8287;51.644;8.494;2022-09-09T05:05:15;99691.41;;;19.87;69.12
16355;BME280;8287;51.644;8.494;2022-09-09T05:07:41;99693.75;;;19.95;68.76
16355;BME280;8287;51.644;8.494;2022-09-09T05:10:09;99692.97;;;19.95;68.86
16355;BME280;8287;51.644;8.494;2022-09-09T05:12:35;99690.66;;;19.97;69.27
16355;BME280;8287;51.644;8.494;2022-09-09T05:15:02;99696.06;;;20.00;69.34
16355;BME280;8287;51.644;8.494;2022-09-09T05:17:29;99696.06;;;20.00;68.99
16355;BME280;8287;51.644;8.494;2022-09-09T05:19:57;99690.72;;;20.07;68.63
16355;BME280;8287;51.644;8.494;2022-09-09T05:22:24;99692.59;;;20.00;69.62
16355;BME280;8287;51.644;8.494;2022-09-09T05:24:50;99694.19;;;20.04;69.26
16355;BME280;8287;51.644;8.494;2022-09-09T05:27:17;99683.44;;;20.08;69.21
16355;BME280;8287;51.644;8.494;2022-09-09T05:29:44;99696.84;;;20.01;69.75
16355;BME280;8287;51.644;8.494;2022-09-09T05:32:11;99689.91;;;20.00;70.30
16355;BME280;8287;51.644;8.494;2022-09-09T05:34:39;99685.34;;;20.11;69.79
16355;BME280;8287;51.644;8.494;2022-09-09T05:37:06;99699.97;;;20.17;69.53
16355;BME280;8287;51.644;8.494;2022-09-09T05:39:33;99686.91;;;20.19;69.42
16355;BME280;8287;51.644;8.494;2022-09-09T05:42:01;99692.28;;;20.19;69.47
16355;BME280;8287;51.644;8.494;2022-09-09T05:44:30;99688.44;;;20.20;69.64
16355;BME280;8287;51.644;8.494;2022-09-09T05:46:56;99694.59;;;20.13;69.45
16355;BME280;8287;51.644;8.494;2022-09-09T05:49:23;99690.72;;;20.32;68.68
16355;BME280;8287;51.644;8.494;2022-09-09T05:51:50;99688.81;;;20.29;69.20
16355;BME280;8287;51.644;8.494;2022-09-09T05:54:18;99691.53;;;20.36;69.05
16355;BME280;8287;51.644;8.494;2022-09-09T05:56:45;99697.66;;;20.43;68.88
16355;BME280;8287;51.644;8.494;2022-09-09T05:59:12;99687.69;;;20.50;68.68
16355;BME280;8287;51.644;8.494;2022-09-09T06:01:38;99691.91;;;20.58;68.34
16355;BME280;8287;51.644;8.494;2022-09-09T06:04:06;99698.06;;;20.66;67.91
16355;BME280;8287;51.644;8.494;2022-09-09T06:06:35;99697.66;;;20.53;68.06
16355;BME280;8287;51.644;8.494;2022-09-09T06:09:03;99693.03;;;20.57;68.11
16355;BME280;8287;51.644;8.494;2022-09-09T06:11:33;99686.13;;;20.63;67.89
16355;BME280;8287;51.644;8.494;2022-09-09T06:14:01;99684.59;;;20.66;67.56
16355;BME280;8287;51.644;8.494;2022-09-09T06:16:29;99687.28;;;20.69;68.02
16355;BME280;8287;51.644;8.494;2022-09-09T06:18:58;99689.19;;;20.72;67.60
16355;BME280;8287;51.644;8.494;2022-09-09T06:21:26;99686.91;;;20.71;67.43
16355;BME280;8287;51.644;8.494;2022-09-09T06:23:53;99699.22;;;20.72;67.89
16355;BME280;8287;51.644;8.494;2022-09-09T06:26:21;99696.88;;;20.74;67.55
16355;BME280;8287;51.644;8.494;2022-09-09T06:28:52;99694.97;;;20.64;67.96
16355;BME280;8287;51.644;8.494;2022-09-09T06:31:20;99693.81;;;20.72;67.92
16355;BME280;8287;51.644;8.494;2022-09-09T06:33:49;99704.59;;;20.75;67.73
16355;BME280;8287;51.644;8.494;2022-09-09T06:36:17;99705.34;;;20.76;67.74
16355;BME280;8287;51.644;8.494;2022-09-09T06:38:45;99707.28;;;20.65;67.65
16355;BME280;8287;51.644;8.494;2022-09-09T06:41:13;99713.06;;;20.70;67.87
16355;BME280;8287;51.644;8.494;2022-09-09T06:43:40;99707.66;;;20.81;67.38
16355;BME280;8287;51.644;8.494;2022-09-09T06:46:10;99704.59;;;20.68;67.61
16355;BME280;8287;51.644;8.494;2022-09-09T06:48:39;99704.19;;;20.80;67.16
16355;BME280;8287;51.644;8.494;2022-09-09T06:51:08;99714.22;;;20.83;66.97
16355;BME280;8287;51.644;8.494;2022-09-09T06:53:36;99720.75;;;20.86;66.75
16355;BME280;8287;51.644;8.494;2022-09-09T06:56:18;99714.59;;;20.89;66.89
16355;BME280;8287;51.644;8.494;2022-09-09T06:58:45;99718.44;;;20.84;67.01
16355;BME280;8287;51.644;8.494;2022-09-09T07:01:14;99709.22;;;20.89;66.98
16355;BME280;8287;51.644;8.494;2022-09-09T07:03:42;99714.59;;;20.85;67.12
16355;BME280;8287;51.644;8.494;2022-09-09T07:06:14;99716.13;;;20.79;67.26
16355;BME280;8287;51.644;8.494;2022-09-09T07:08:42;99713.81;;;20.95;67.06
16355;BME280;8287;51.644;8.494;2022-09-09T07:11:09;99710.75;;;21.00;66.75
16355;BME280;8287;51.644;8.494;2022-09-09T07:13:36;99711.13;;;21.02;66.89
16355;BME280;8287;51.644;8.494;2022-09-09T07:16:04;99695.69;;;21.06;66.39
16355;BME280;8287;51.644;8.494;2022-09-09T07:18:32;99708.38;;;21.20;66.47
16355;BME280;8287;51.644;8.494;2022-09-09T07:21:00;99716.06;;;21.21;66.38
16355;BME280;8287;51.644;8.494;2022-09-09T07:23:27;99710.28;;;21.30;66.41
16355;BME280;8287;51.644;8.494;2022-09-09T07:25:54;99710.28;;;21.33;66.47
16355;BME280;8287;51.644;8.494;2022-09-09T07:28:20;99712.56;;;21.31;65.57
16355;BME280;8287;51.644;8.494;2022-09-09T07:30:53;99714.91;;;21.22;65.28
16355;BME280;8287;51.644;8.494;2022-09-09T07:33:20;99709.94;;;21.14;66.03
16355;BME280;8287;51.644;8.494;2022-09-09T07:35:48;99713.75;;;21.23;65.69
16355;BME280;8287;51.644;8.494;2022-09-09T07:38:14;99720.66;;;21.24;64.26
16355;BME280;8287;51.644;8.494;2022-09-09T07:40:41;99717.66;;;21.05;65.77
16355;BME280;8287;51.644;8.494;2022-09-09T07:43:09;99724.94;;;21.11;65.71
16355;BME280;8287;51.644;8.494;2022-09-09T07:45:36;99729.19;;;21.05;65.55
16355;BME280;8287;51.644;8.494;2022-09-09T07:48:03;99730.38;;;20.80;66.10
16355;BME280;8287;51.644;8.494;2022-09-09T07:50:30;99723.81;;;20.67;66.12
16355;BME280;8287;51.644;8.494;2022-09-09T07:52:58;99724.56;;;20.81;66.16
16355;BME280;8287;51.644;8.494;2022-09-09T07:55:24;99731.53;;;20.86;66.84
16355;BME280;8287;51.644;8.494;2022-09-09T07:57:53;99734.59;;;20.81;66.28
16355;BME280;8287;51.644;8.494;2022-09-09T08:00:20;99729.97;;;20.92;66.05
16355;BME280;8287;51.644;8.494;2022-09-09T08:02:47;99726.91;;;21.00;65.97
16355;BME280;8287;51.644;8.494;2022-09-09T08:05:14;99729.56;;;21.07;65.86
16355;BME280;8287;51.644;8.494;2022-09-09T08:07:41;99732.66;;;21.16;66.44
16355;BME280;8287;51.644;8.494;2022-09-09T08:10:10;99734.56;;;21.19;66.12
16355;BME280;8287;51.644;8.494;2022-09-09T08:12:40;99733.78;;;21.12;66.72
16355;BME280;8287;51.644;8.494;2022-09-09T08:15:07;99742.28;;;21.17;66.23
16355;BME280;8287;51.644;8.494;2022-09-09T08:17:33;99739.56;;;21.17;66.83
16355;BME280;8287;51.644;8.494;2022-09-09T08:20:00;99746.09;;;21.20;67.16
16355;BME280;8287;51.644;8.494;2022-09-09T08:22:30;99740.31;;;21.32;66.46
16355;BME280;8287;51.644;8.494;2022-09-09T08:24:56;99741.41;;;21.48;66.55
16355;BME280;8287;51.644;8.494;2022-09-09T08:27:25;99738.31;;;21.57;66.18
16355;BME280;8287;51.644;8.494;2022-09-09T08:29:51;99739.81;;;21.61;66.27
16355;BME280;8287;51.644;8.494;2022-09-09T08:32:18;99743.28;;;21.65;66.55
16355;BME280;8287;51.644;8.494;2022-09-09T08:34:45;99735.91;;;21.83;66.67
16355;BME280;8287;51.644;8.494;2022-09-09T08:37:12;99742.72;;;22.05;66.29
16355;BME280;8287;51.644;8.494;2022-09-09T08:39:39;99739.50;;;22.24;66.52
16355;BME280;8287;51.644;8.494;2022-09-09T08:42:39;99745.66;;;22.32;65.36
16355;BME280;8287;51.644;8.494;2022-09-09T08:45:25;99753.66;;;22.46;63.31
16355;BME280;8287;51.644;8.494;2022-09-09T08:48:08;99752.84;;;22.56;61.35
16355;BME280;8287;51.644;8.494;2022-09-09T08:50:38;99743.16;;;22.58;61.01
16355;BME280;8287;51.644;8.494;2022-09-09T08:53:11;99751.75;;;22.46;61.04
16355;BME280;8287;51.644;8.494;2022-09-09T08:55:45;99748.63;;;22.51;60.94
16355;BME280;8287;51.644;8.494;2022-09-09T08:58:17;99751.69;;;22.57;60.05
16355;BME280;8287;51.644;8.494;2022-09-09T09:01:02;99755.41;;;22.70;60.10
16355;BME280;8287;51.644;8.494;2022-09-09T09:03:42;99758.25;;;22.56;59.40
16355;BME280;8287;51.644;8.494;2022-09-09T09:06:24;99758.69;;;22.47;60.55
16355;BME280;8287;51.644;8.494;2022-09-09T09:08:59;99750.50;;;22.58;58.64
16355;BME280;8287;51.644;8.494;2022-09-09T09:11:34;99752.03;;;22.59;58.11
16355;BME280;8287;51.644;8.494;2022-09-09T09:14:05;99760.44;;;22.68;58.31
16355;BME280;8287;51.644;8.494;2022-09-09T09:16:38;99756.53;;;22.76;56.75
16355;BME280;8287;51.644;8.494;2022-09-09T09:19:08;99761.91;;;22.79;57.38
16355;BME280;8287;51.644;8.494;2022-09-09T09:21:42;99755.91;;;23.02;57.63
16355;BME280;8287;51.644;8.494;2022-09-09T09:24:16;99758.09;;;23.17;56.64
16355;BME280;8287;51.644;8.494;2022-09-09T09:26:44;99757.59;;;23.29;56.64
16355;BME280;8287;51.644;8.494;2022-09-09T09:29:15;99752.19;;;23.29;56.19
16355;BME280;8287;51.644;8.494;2022-09-09T09:31:44;99756.41;;;23.34;55.36
16355;BME280;8287;51.644;8.494;2022-09-09T09:34:13;99751.28;;;23.43;55.42
16355;BME280;8287;51.644;8.494;2022-09-09T09:36:41;99755.59;;;23.37;55.17
16355;BME280;8287;51.644;8.494;2022-09-09T09:39:22;99754.50;;;23.31;54.98
16355;BME280;8287;51.644;8.494;2022-09-09T09:41:49;99751.75;;;23.34;54.53
16355;BME280;8287;51.644;8.494;2022-09-09T09:44:25;99746.31;;;23.34;55.75
16355;BME280;8287;51.644;8.494;2022-09-09T09:46:52;99744.66;;;23.47;53.21
16355;BME280;8287;51.644;8.494;2022-09-09T09:49:19;99737.88;;;23.66;53.76
16355;BME280;8287;51.644;8.494;2022-09-09T09:51:46;99749.44;;;23.66;52.12
16355;BME280;8287;51.644;8.494;2022-09-09T09:54:18;99748.66;;;23.69;51.86
16355;BME280;8287;51.644;8.494;2022-09-09T09:56:48;99742.81;;;23.71;52.29
16355;BME280;8287;51.644;8.494;2022-09-09T09:59:32;99739.91;;;23.55;50.77
16355;BME280;8287;51.644;8.494;2022-09-09T10:02:13;99750.34;;;23.56;50.97
16355;BME280;8287;51.644;8.494;2022-09-09T10:04:40;99742.94;;;23.64;51.90
16355;BME280;8287;51.644;8.494;2022-09-09T10:07:10;99742.47;;;23.69;51.40
16355;BME280;8287;51.644;8.494;2022-09-09T10:09:37;99735.44;;;23.75;51.57
16355;BME280;8287;51.644;8.494;2022-09-09T10:12:13;99739.38;;;23.70;51.58
16355;BME280;8287;51.644;8.494;2022-09-09T10:14:49;99730.06;;;23.71;51.44
16355;BME280;8287;51.644;8.494;2022-09-09T10:17:22;99725.63;;;23.84;51.02
16355;BME280;8287;51.644;8.494;2022-09-09T10:20:00;99723.75;;;23.81;50.03
16355;BME280;8287;51.644;8.494;2022-09-09T10:22:33;99732.78;;;23.71;50.94
16355;BME280;8287;51.644;8.494;2022-09-09T10:25:26;99728.34;;;23.84;51.56
16355;BME280;8287;51.644;8.494;2022-09-09T10:28:26;99720.91;;;23.95;49.79
16355;BME280;8287;51.644;8.494;2022-09-09T10:31:05;99734.03;;;24.23;48.94
16355;BME280;8287;51.644;8.494;2022-09-09T10:33:44;99728.16;;;24.02;48.81
16355;BME280;8287;51.644;8.494;2022-09-09T10:36:18;99731.47;;;24.13;49.42
16355;BME280;8287;51.644;8.494;2022-09-09T10:38:47;99731.59;;;24.06;47.88
16355;BME280;8287;51.644;8.494;2022-09-09T10:41:20;99722.91;;;23.88;47.75
16355;BME280;8287;51.644;8.494;2022-09-09T10:44:11;99723.56;;;23.99;49.84
16355;BME280;8287;51.644;8.494;2022-09-09T10:46:51;99726.81;;;24.39;49.61
16355;BME280;8287;51.644;8.494;2022-09-09T10:49:34;99733.94;;;24.56;49.18
16355;BME280;8287;51.644;8.494;2022-09-09T10:52:11;99728.91;;;24.55;46.94
16355;BME280;8287;51.644;8.494;2022-09-09T10:54:46;99725.06;;;24.26;48.33
16355;BME280;8287;51.644;8.494;2022-09-09T10:57:28;99731.25;;;24.26;47.94
16355;BME280;8287;51.644;8.494;2022-09-09T11:00:02;99729.25;;;24.57;47.95
16355;BME280;8287;51.644;8.494;2022-09-09T11:02:33;99721.59;;;24.75;47.11
16355;BME280;8287;51.644;8.494;2022-09-09T11:05:03;99728.56;;;24.76;46.56
16355;BME280;8287;51.644;8.494;2022-09-09T11:07:35;99726.63;;;24.76;47.96
16355;BME280;8287;51.644;8.494;2022-09-09T11:10:12;99730.91;;;24.74;47.41
16355;BME280;8287;51.644;8.494;2022-09-09T11:12:43;99720.84;;;24.74;47.29
16355;BME280;8287;51.644;8.494;2022-09-09T11:15:17;99710.06;;;24.94;47.62
16355;BME280;8287;51.644;8.494;2022-09-09T11:17:50;99713.00;;;25.03;47.93
16355;BME280;8287;51.644;8.494;2022-09-09T11:20:19;99728.53;;;25.22;45.42
16355;BME280;8287;51.644;8.494;2022-09-09T11:22:49;99722.66;;;25.04;46.09
16355;BME280;8287;51.644;8.494;2022-09-09T11:25:21;99716.78;;;25.05;45.10
16355;BME280;8287;51.644;8.494;2022-09-09T11:27:59;99720.41;;;24.76;47.73
16355;BME280;8287;51.644;8.494;2022-09-09T11:30:40;99729.84;;;24.91;45.48
16355;BME280;8287;51.644;8.494;2022-09-09T11:36:37;99728.88;;;24.58;46.82
16355;BME280;8287;51.644;8.494;2022-09-09T11:39:25;99718.66;;;24.89;47.26
16355;BME280;8287;51.644;8.494;2022-09-09T11:42:06;99717.56;;;25.06;46.21
16355;BME280;8287;51.644;8.494;2022-09-09T11:44:33;99717.38;;;25.16;46.07
16355;BME280;8287;51.644;8.494;2022-09-09T11:47:00;99705.69;;;25.19;45.55
16355;BME280;8287;51.644;8.494;2022-09-09T11:49:29;99709.00;;;25.50;45.91
16355;BME280;8287;51.644;8.494;2022-09-09T11:51:58;99710.03;;;25.75;45.82
16355;BME280;8287;51.644;8.494;2022-09-09T11:54:28;99705.28;;;25.79;44.23
16355;BME280;8287;51.644;8.494;2022-09-09T11:56:55;99706.28;;;26.05;43.03
16355;BME280;8287;51.644;8.494;2022-09-09T11:59:24;99714.09;;;26.19;42.67
16355;BME280;8287;51.644;8.494;2022-09-09T12:01:55;99699.78;;;26.18;42.45
16355;BME280;8287;51.644;8.494;2022-09-09T12:04:35;99706.63;;;26.07;42.04
16355;BME280;8287;51.644;8.494;2022-09-09T12:07:24;99705.84;;;25.90;42.65
16355;BME280;8287;51.644;8.494;2022-09-09T12:09:56;99698.81;;;26.09;42.69
16355;BME280;8287;51.644;8.494;2022-09-09T12:12:28;99703.53;;;26.24;42.74
16355;BME280;8287;51.644;8.494;2022-09-09T12:14:58;99704.13;;;26.48;43.08
16355;BME280;8287;51.644;8.494;2022-09-09T12:17:27;99684.94;;;26.39;43.25
16355;BME280;8287;51.644;8.494;2022-09-09T12:20:02;99688.66;;;26.61;43.67
16355;BME280;8287;51.644;8.494;2022-09-09T12:22:39;99692.53;;;26.92;43.15
16355;BME280;8287;51.644;8.494;2022-09-09T12:25:17;99695.97;;;26.80;43.21
16355;BME280;8287;51.644;8.494;2022-09-09T12:27:52;99704.44;;;26.50;42.09
16355;BME280;8287;51.644;8.494;2022-09-09T12:30:29;99699.44;;;26.32;43.00
16355;BME280;8287;51.644;8.494;2022-09-09T12:33:06;99709.63;;;26.28;43.50
16355;BME280;8287;51.644;8.494;2022-09-09T12:35:35;99710.38;;;25.77;43.25
16355;BME280;8287;51.644;8.494;2022-09-09T12:38:06;99704.47;;;25.43;44.62
16355;BME280;8287;51.644;8.494;2022-09-09T12:40:37;99693.50;;;25.86;42.83
16355;BME280;8287;51.644;8.494;2022-09-09T12:43:17;99706.88;;;25.77;44.25
16355;BME280;8287;51.644;8.494;2022-09-09T12:45:44;99703.63;;;25.66;44.50
16355;BME280;8287;51.644;8.494;2022-09-09T12:48:11;99703.47;;;25.73;44.21
16355;BME280;8287;51.644;8.494;2022-09-09T12:50:45;99695.75;;;25.91;44.03
16355;BME280;8287;51.644;8.494;2022-09-09T12:53:18;99690.34;;;26.23;43.64
16355;BME280;8287;51.644;8.494;2022-09-09T12:55:51;99688.16;;;26.66;43.30
16355;BME280;8287;51.644;8.494;2022-09-09T12:58:19;99689.41;;;26.77;42.38
16355;BME280;8287;51.644;8.494;2022-09-09T13:00:49;99678.31;;;26.72;42.93
16355;BME280;8287;51.644;8.494;2022-09-09T13:03:19;99680.53;;;26.89;42.59
16355;BME280;8287;51.644;8.494;2022-09-09T13:05:47;99681.47;;;26.99;41.33
16355;BME280;8287;51.644;8.494;2022-09-09T13:08:16;99683.63;;;27.20;39.68
16355;BME280;8287;51.644;8.494;2022-09-09T13:10:49;99674.19;;;27.24;39.49
16355;BME280;8287;51.644;8.494;2022-09-09T13:13:21;99662.25;;;27.34;37.21
16355;BME280;8287;51.644;8.494;2022-09-09T13:15:51;99672.97;;;26.97;37.92
16355;BME280;8287;51.644;8.494;2022-09-09T13:18:21;99670.56;;;27.15;38.02
16355;BME280;8287;51.644;8.494;2022-09-09T13:20:49;99673.53;;;27.33;37.71
16355;BME280;8287;51.644;8.494;2022-09-09T13:23:20;99676.66;;;27.19;37.98
16355;BME280;8287;51.644;8.494;2022-09-09T13:25:53;99667.22;;;27.07;37.10
16355;BME280;8287;51.644;8.494;2022-09-09T13:28:22;99672.38;;;26.89;38.25
16355;BME280;8287;51.644;8.494;2022-09-09T13:30:56;99663.88;;;26.59;37.31
16355;BME280;8287;51.644;8.494;2022-09-09T13:33:29;99657.22;;;26.76;38.02
16355;BME280;8287;51.644;8.494;2022-09-09T13:35:58;99657.22;;;26.76;37.30